»·PEaware :: N251SM KSMO-KOXR

N251SM :: KSMO-KOXR

FLIGHT INFORMATION

Flight Status: Arrived
Operator: Privately registered:
United States
More flights under this callsign
Pilot: John A. (24927)
Aircraft: BEECH AIRCRAFT BARON
(BE58)
More flights by this aircraft type
Origin: KSMO Santa Monica Mun
United States
Destination: KOXR Oxnard
United States
More flights between these airports :: More routes between these airports
Route: SMO VNY
File this flight plan on PilotEdge
Remarks: SMOP36
Altitude:
(Current/Filed)
4,000ft
Speed:
(Current/Filed)
190kts
Departed: 04-Dec-20 07:37 PM
Arrived: 04-Dec-20 07:54 PM
Distance/Time
Traveled:
39nm/0:16
Distance/Time
To Go:
Arrived

Flight Plot

Page will automatically refresh every two minutes.


Map Options




Map Legend


Flown Route
Filed Route
Departure Airport
Arrival Airport
Navaid (VOR, NDB)
Fix

Horizontal Profiles

Position Reports

Time Latitude Longitude Heading Altitude Ground
Speed
04-Dec-20 19:12 34.012126 -118.454390 315 135ft 0kts
04-Dec-20 19:13 34.012126 -118.454390 315 135ft 0kts
04-Dec-20 19:14 34.012126 -118.454390 315 135ft 0kts
04-Dec-20 19:15 34.012126 -118.454390 315 135ft 0kts
04-Dec-20 19:16 34.012126 -118.454390 315 135ft 0kts
04-Dec-20 19:17 34.012126 -118.454390 315 135ft 0kts
04-Dec-20 19:18 34.012126 -118.454390 315 135ft 0kts
04-Dec-20 19:19 34.012126 -118.454390 315 135ft 0kts
04-Dec-20 19:20 34.012126 -118.454390 315 135ft 0kts
04-Dec-20 19:21 34.012126 -118.454390 315 135ft 0kts
04-Dec-20 19:22 34.012126 -118.454390 315 135ft 0kts
04-Dec-20 19:23 34.016118 -118.449852 44 135ft 29kts
04-Dec-20 19:24 34.018886 -118.446875 311 135ft 0kts
04-Dec-20 19:25 34.018283 -118.447792 143 135ft 20kts
04-Dec-20 19:26 34.016720 -118.448664 295 135ft 0kts
04-Dec-20 19:27 34.016720 -118.448664 295 135ft 0kts
04-Dec-20 19:28 34.016720 -118.448664 295 135ft 0kts
04-Dec-20 19:29 34.016720 -118.448664 295 135ft 0kts
04-Dec-20 19:30 34.016720 -118.448664 295 135ft 0kts
04-Dec-20 19:31 34.016720 -118.448664 295 135ft 0kts
04-Dec-20 19:32 34.016720 -118.448664 295 135ft 0kts
04-Dec-20 19:33 34.018478 -118.447070 51 135ft 21kts
04-Dec-20 19:34 34.018905 -118.446912 310 135ft 0kts
04-Dec-20 19:35 34.018905 -118.446912 310 135ft 0kts
04-Dec-20 19:37 34.000102 -118.468346 223 1161ft 136kts
04-Dec-20 19:37 33.976138 -118.500236 256 2043ft 166kts
04-Dec-20 19:38 33.967708 -118.555103 261 3328ft 159kts
04-Dec-20 19:39 33.960036 -118.608545 274 3986ft 163kts
04-Dec-20 19:40 33.989870 -118.646415 321 4007ft 176kts
04-Dec-20 19:41 34.030403 -118.686777 320 3998ft 194kts
04-Dec-20 19:42 34.072198 -118.728593 320 3997ft 195kts
04-Dec-20 19:43 34.114113 -118.770312 320 3997ft 195kts
04-Dec-20 19:44 34.156080 -118.812064 320 3999ft 195kts
04-Dec-20 19:45 34.193402 -118.858060 284 4005ft 197kts
04-Dec-20 19:46 34.198577 -118.923797 270 4009ft 198kts
04-Dec-20 19:47 34.198944 -118.987386 271 3170ft 136kts
04-Dec-20 19:48 34.199274 -119.026153 272 2865ft 120kts
04-Dec-20 19:49 34.199661 -119.067817 272 2212ft 124kts
04-Dec-20 19:50 34.200032 -119.109014 272 1562ft 119kts
04-Dec-20 19:51 34.200362 -119.148890 271 897ft 118kts
04-Dec-20 19:52 34.200540 -119.188542 277 203ft 113kts
04-Dec-20 19:53 34.199977 -119.207109 169 38ft 0kts
04-Dec-20 19:54 34.199678 -119.212468 234 38ft 23kts
04-Dec-20 19:55 34.199335 -119.212742 10 38ft 0kts
04-Dec-20 19:56 34.199335 -119.212742 10 38ft 0kts
04-Dec-20 19:57 34.199335 -119.212742 10 38ft 0kts
04-Dec-20 19:58 34.199335 -119.212742 10 38ft 0kts
04-Dec-20 19:59 34.199335 -119.212742 10 38ft 0kts
04-Dec-20 20:00 34.199335 -119.212742 10 38ft 0kts
04-Dec-20 20:01 34.199335 -119.212742 10 38ft 0kts
04-Dec-20 20:02 34.199335 -119.212742 10 38ft 0kts
04-Dec-20 20:03 34.199335 -119.212742 10 38ft 0kts

Navigation Log

Ident Type
Flight plan parsing failed, navigation log unavailable